createdAt,value
2018-03-30T00:02:03.142Z,100240.87
2018-03-30T00:04:30.612Z,100238.00
2018-03-30T00:07:12.957Z,100238.73
2018-03-30T00:09:52.456Z,100243.38
2018-03-30T00:12:19.949Z,100247.22
2018-03-30T00:14:47.457Z,100243.42
2018-03-30T00:17:14.937Z,100250.42
2018-03-30T00:19:42.458Z,100250.31
2018-03-30T00:22:09.934Z,100250.40
2018-03-30T00:24:37.493Z,100251.63
2018-03-30T00:27:04.945Z,100255.77
2018-03-30T00:29:32.411Z,100256.06
2018-03-30T00:31:59.910Z,100260.61
2018-03-30T00:34:27.377Z,100270.41
2018-03-30T00:36:54.833Z,100276.77
2018-03-30T00:39:22.425Z,100276.17
2018-03-30T00:41:49.892Z,100280.27
2018-03-30T00:44:17.366Z,100280.08
2018-03-30T00:46:44.867Z,100280.56
2018-03-30T00:49:12.491Z,100280.56
2018-03-30T00:51:39.960Z,100281.20
2018-03-30T00:54:07.458Z,100283.70
2018-03-30T00:56:34.919Z,100288.73
2018-03-30T00:59:02.388Z,100283.88
2018-03-30T01:01:29.910Z,100292.03
2018-03-30T01:03:57.435Z,100287.68
2018-03-30T01:06:24.900Z,100283.55
2018-03-30T01:08:52.406Z,100284.57
2018-03-30T01:11:19.896Z,100293.20
2018-03-30T01:13:47.353Z,100300.45
2018-03-30T01:16:14.895Z,100303.12
2018-03-30T01:18:42.350Z,100303.53
2018-03-30T01:21:09.821Z,100304.33
2018-03-30T01:23:37.323Z,100310.17
2018-03-30T01:26:04.790Z,100310.57
2018-03-30T01:28:32.275Z,100310.84
2018-03-30T01:30:59.759Z,100305.71
2018-03-30T01:33:27.242Z,100308.62
2018-03-30T01:35:54.693Z,100309.69
2018-03-30T01:38:22.173Z,100309.50
2018-03-30T01:40:49.649Z,100305.31
2018-03-30T01:43:17.119Z,100303.70
2018-03-30T01:45:44.593Z,100309.62
2018-03-30T01:48:12.055Z,100306.05
2018-03-30T01:50:39.537Z,100309.81
2018-03-30T01:53:07.022Z,100318.71
2018-03-30T01:55:34.474Z,100320.95
2018-03-30T01:58:01.944Z,100325.66
2018-03-30T02:00:29.424Z,100321.98
2018-03-30T02:02:56.882Z,100325.55
2018-03-30T02:05:24.355Z,100331.70
2018-03-30T02:07:51.860Z,100339.19
2018-03-30T02:10:19.341Z,100338.27
2018-03-30T02:12:46.813Z,100336.97
2018-03-30T02:15:14.299Z,100335.95
2018-03-30T02:17:41.778Z,100343.20
2018-03-30T02:20:09.250Z,100333.13
2018-03-30T02:22:36.760Z,100342.33
2018-03-30T02:25:04.302Z,100348.98
2018-03-30T02:27:31.832Z,100344.90
2018-03-30T02:29:59.337Z,100347.56
2018-03-30T02:32:26.804Z,100356.17
2018-03-30T02:34:54.276Z,100351.70
2018-03-30T02:37:21.777Z,100343.68
2018-03-30T02:39:49.343Z,100350.06
2018-03-30T02:42:16.809Z,100354.53
2018-03-30T02:44:44.311Z,100348.56
2018-03-30T02:47:11.785Z,100348.27
2018-03-30T02:49:39.266Z,100346.25
2018-03-30T02:52:06.775Z,100337.03
2018-03-30T02:54:34.242Z,100342.52
2018-03-30T02:57:01.714Z,100341.87
2018-03-30T02:59:29.309Z,100341.05
2018-03-30T03:01:56.775Z,100338.55
2018-03-30T03:04:24.246Z,100334.05
2018-03-30T03:06:51.813Z,100336.94
2018-03-30T03:09:19.299Z,100328.34
2018-03-30T03:11:46.758Z,100336.13
2018-03-30T03:14:14.245Z,100336.50
2018-03-30T03:16:41.705Z,100339.73
2018-03-30T03:19:09.195Z,100336.77
2018-03-30T03:21:36.662Z,100341.84
2018-03-30T03:24:04.131Z,100334.65
2018-03-30T03:26:31.612Z,100336.26
2018-03-30T03:28:59.092Z,100339.92
2018-03-30T03:31:26.603Z,100343.35
2018-03-30T03:33:54.113Z,100333.24
2018-03-30T03:36:21.576Z,100334.31
2018-03-30T03:38:49.038Z,100329.58
2018-03-30T03:41:16.590Z,100332.31
2018-03-30T03:43:44.047Z,100334.00
2018-03-30T03:46:11.516Z,100342.84
2018-03-30T03:48:39.005Z,100341.36
2018-03-30T03:51:06.462Z,100335.64
2018-03-30T03:53:33.981Z,100335.19
2018-03-30T03:56:01.439Z,100339.78
2018-03-30T03:58:28.894Z,100347.90
2018-03-30T04:00:56.439Z,100341.87
2018-03-30T04:03:23.915Z,100339.20
2018-03-30T04:05:51.399Z,100345.64
2018-03-30T04:08:18.889Z,100352.15
2018-03-30T04:10:46.938Z,100350.33
2018-03-30T04:13:14.423Z,100343.06
2018-03-30T04:15:41.912Z,100348.98
2018-03-30T04:18:09.370Z,100347.10
2018-03-30T04:20:36.853Z,100350.08
2018-03-30T04:23:04.327Z,100345.82
2018-03-30T04:25:31.978Z,100344.48
2018-03-30T04:27:59.893Z,100358.14
2018-03-30T04:30:27.403Z,100356.73
2018-03-30T04:32:54.932Z,100358.45
2018-03-30T04:35:22.429Z,100353.13
2018-03-30T04:37:49.903Z,100357.55
2018-03-30T04:40:17.379Z,100357.23
2018-03-30T04:42:44.866Z,100357.91
2018-03-30T04:45:12.325Z,100358.94
2018-03-30T04:47:39.802Z,100360.08
2018-03-30T04:50:07.314Z,100363.09
2018-03-30T04:52:34.770Z,100362.45
2018-03-30T04:55:02.230Z,100365.92
2018-03-30T04:57:29.703Z,100370.72
2018-03-30T04:59:57.185Z,100363.98
2018-03-30T05:02:24.757Z,100370.88
2018-03-30T05:04:52.218Z,100367.40
2018-03-30T05:07:19.718Z,100362.06
2018-03-30T05:09:47.198Z,100363.16
2018-03-30T05:12:14.678Z,100359.95
2018-03-30T05:14:42.214Z,100359.57
2018-03-30T05:17:09.682Z,100357.03
2018-03-30T05:19:37.226Z,100358.10
2018-03-30T05:22:04.722Z,100352.78
2018-03-30T05:24:32.202Z,100357.92
2018-03-30T05:26:59.666Z,100360.19
2018-03-30T05:29:27.154Z,100368.41
2018-03-30T05:31:54.622Z,100373.97
2018-03-30T05:34:22.096Z,100370.47
2018-03-30T05:36:49.574Z,100375.58
2018-03-30T05:39:17.059Z,100368.69
2018-03-30T05:41:44.547Z,100372.42
2018-03-30T05:44:12.117Z,100375.96
2018-03-30T05:46:39.583Z,100372.91
2018-03-30T05:49:07.067Z,100371.95
2018-03-30T05:51:34.567Z,100379.19
2018-03-30T05:54:02.035Z,100381.95
2018-03-30T05:56:29.515Z,100392.90
2018-03-30T05:58:56.995Z,100394.55
2018-03-30T06:01:24.512Z,100391.49
2018-03-30T06:03:52.071Z,100395.30
2018-03-30T06:06:19.547Z,100395.39
2018-03-30T06:08:47.017Z,100392.89
2018-03-30T06:11:14.556Z,100391.96
2018-03-30T06:13:42.077Z,100389.37
2018-03-30T06:16:09.621Z,100389.59
2018-03-30T06:18:37.091Z,100395.45
2018-03-30T06:21:04.570Z,100397.48
2018-03-30T06:23:32.046Z,100401.75
2018-03-30T06:28:33.331Z,100410.88
2018-03-30T06:31:00.851Z,100413.63
2018-03-30T06:33:28.414Z,100411.39
2018-03-30T06:35:55.899Z,100409.75
2018-03-30T06:38:23.370Z,100414.14
2018-03-30T06:40:50.830Z,100419.98
2018-03-30T06:43:18.334Z,100421.66
2018-03-30T06:45:45.802Z,100426.27
2018-03-30T06:48:13.361Z,100420.69
2018-03-30T06:50:40.852Z,100424.67
2018-03-30T06:53:08.350Z,100425.55
2018-03-30T06:55:35.844Z,100425.07
2018-03-30T06:58:03.323Z,100423.44
2018-03-30T07:00:30.793Z,100431.75
2018-03-30T07:02:58.358Z,100431.88
2018-03-30T07:05:25.832Z,100426.70
2018-03-30T07:07:53.425Z,100422.16
2018-03-30T07:10:20.984Z,100421.73
2018-03-30T07:12:48.455Z,100427.98
2018-03-30T07:15:15.962Z,100436.44
2018-03-30T07:17:43.439Z,100431.22
2018-03-30T07:20:10.907Z,100437.99
2018-03-30T07:22:38.382Z,100428.55
2018-03-30T07:25:05.960Z,100436.72
2018-03-30T07:27:33.434Z,100439.80
2018-03-30T07:30:00.950Z,100442.88
2018-03-30T07:32:28.411Z,100438.45
2018-03-30T07:34:55.886Z,100437.72
2018-03-30T07:37:23.419Z,100436.34
2018-03-30T07:39:50.881Z,100447.53
2018-03-30T07:42:18.343Z,100446.58
2018-03-30T07:44:45.835Z,100433.14
2018-03-30T07:47:13.306Z,100438.90
2018-03-30T07:49:40.876Z,100439.52
2018-03-30T07:52:08.398Z,100449.53
2018-03-30T07:54:35.898Z,100446.72
2018-03-30T07:57:03.350Z,100446.83
2018-03-30T07:59:30.941Z,100453.46
2018-03-30T08:01:58.402Z,100458.56
2018-03-30T08:04:25.865Z,100459.06
2018-03-30T08:06:53.422Z,100450.63
2018-03-30T08:09:20.883Z,100458.64
2018-03-30T08:11:48.358Z,100461.66
2018-03-30T08:14:15.831Z,100463.08
2018-03-30T08:16:43.295Z,100463.94
2018-03-30T08:19:10.791Z,100468.88
2018-03-30T08:21:38.275Z,100468.21
2018-03-30T08:24:05.745Z,100467.46
2018-03-30T08:26:33.230Z,100468.00
2018-03-30T08:29:00.703Z,100466.83
2018-03-30T08:31:28.201Z,100473.06
2018-03-30T08:33:55.746Z,100470.60
2018-03-30T08:36:23.202Z,100469.52
2018-03-30T08:38:50.699Z,100478.05
2018-03-30T08:41:18.161Z,100473.84
2018-03-30T08:43:45.682Z,100475.56
2018-03-30T08:46:13.172Z,100476.61
2018-03-30T08:48:40.633Z,100473.30
2018-03-30T08:51:08.306Z,100471.67
2018-03-30T08:53:35.813Z,100469.06
2018-03-30T08:56:03.270Z,100467.80
2018-03-30T08:58:30.739Z,100465.31
2018-03-30T09:00:58.209Z,100465.05
2018-03-30T09:03:25.775Z,100459.39
2018-03-30T09:05:53.260Z,100458.27
2018-03-30T09:08:20.766Z,100466.84
2018-03-30T09:10:48.235Z,100457.20
2018-03-30T09:13:15.739Z,100457.91
2018-03-30T09:15:43.330Z,100458.61
2018-03-30T09:18:10.786Z,100455.31
2018-03-30T09:20:38.282Z,100460.84
2018-03-30T09:23:05.857Z,100456.88
2018-03-30T09:25:33.455Z,100457.75
2018-03-30T09:28:00.916Z,100460.09
2018-03-30T09:30:28.367Z,100456.81
2018-03-30T09:32:55.846Z,100446.44
2018-03-30T09:35:23.306Z,100437.45
2018-03-30T09:37:50.819Z,100433.90
2018-03-30T09:40:18.316Z,100431.70
2018-03-30T09:42:45.779Z,100427.30
2018-03-30T09:45:13.436Z,100425.44
2018-03-30T09:47:40.905Z,100422.95
2018-03-30T09:50:08.363Z,100417.48
2018-03-30T09:52:35.894Z,100408.73
2018-03-30T09:55:03.355Z,100407.44
2018-03-30T09:57:30.926Z,100408.91
2018-03-30T09:59:58.716Z,100411.23
2018-03-30T10:02:29.032Z,100403.52
2018-03-30T10:05:01.546Z,100396.72
2018-03-30T10:07:29.006Z,100388.47
2018-03-30T10:09:56.486Z,100390.16
2018-03-30T10:12:24.023Z,100391.27
2018-03-30T10:14:51.547Z,100383.05
2018-03-30T10:17:19.013Z,100380.25
2018-03-30T10:19:46.490Z,100385.03
2018-03-30T10:22:13.998Z,100382.81
2018-03-30T10:24:41.462Z,100391.53
2018-03-30T10:27:08.971Z,100387.36
2018-03-30T10:29:36.472Z,100385.78
2018-03-30T10:32:03.935Z,100381.69
2018-03-30T10:34:31.423Z,100377.22
2018-03-30T10:36:58.972Z,100380.74
2018-03-30T10:39:26.501Z,100375.83
2018-03-30T10:41:53.982Z,100375.18
2018-03-30T10:44:21.434Z,100372.20
2018-03-30T10:46:48.929Z,100376.94
2018-03-30T10:49:16.411Z,100371.39
2018-03-30T10:51:43.936Z,100378.59
2018-03-30T10:54:11.387Z,100371.53
2018-03-30T10:56:38.898Z,100361.95
2018-03-30T10:59:06.354Z,100367.50
2018-03-30T11:01:33.823Z,100357.68
2018-03-30T11:04:01.370Z,100359.48
2018-03-30T11:06:28.826Z,100361.25
2018-03-30T11:08:56.390Z,100351.11
2018-03-30T11:11:23.862Z,100351.00
2018-03-30T11:13:51.330Z,100350.19
2018-03-30T11:16:18.826Z,100345.86
2018-03-30T11:18:46.302Z,100339.56
2018-03-30T11:21:13.773Z,100332.34
2018-03-30T11:23:41.246Z,100333.04
2018-03-30T11:26:08.710Z,100337.97
2018-03-30T11:28:36.255Z,100326.20
2018-03-30T11:31:03.746Z,100326.73
2018-03-30T11:33:31.218Z,100314.62
2018-03-30T11:35:58.697Z,100306.63
2018-03-30T11:38:26.167Z,100309.01
2018-03-30T11:40:53.650Z,100305.73
2018-03-30T11:43:21.216Z,100302.90
2018-03-30T11:45:48.755Z,100307.21
2018-03-30T11:48:16.248Z,100292.36
2018-03-30T11:50:43.737Z,100293.17
2018-03-30T11:53:11.239Z,100285.98
2018-03-30T11:55:38.787Z,100281.45
2018-03-30T11:58:06.246Z,100277.86
2018-03-30T12:00:33.703Z,100273.52
2018-03-30T12:03:01.208Z,100262.84
2018-03-30T12:05:28.727Z,100262.84
2018-03-30T12:07:56.269Z,100259.73
2018-03-30T12:10:23.747Z,100261.70
2018-03-30T12:12:51.306Z,100265.36
2018-03-30T12:15:18.785Z,100263.42
2018-03-30T12:17:46.245Z,100262.31
2018-03-30T12:20:13.711Z,100251.57
2018-03-30T12:22:41.695Z,100253.46
2018-03-30T12:25:09.263Z,100252.67
2018-03-30T12:27:36.736Z,100258.70
2018-03-30T12:30:04.219Z,100262.19
2018-03-30T12:32:31.688Z,100258.61
2018-03-30T12:34:59.251Z,100254.69
2018-03-30T12:37:26.742Z,100245.03
2018-03-30T12:39:54.292Z,100244.07
2018-03-30T12:42:21.804Z,100237.31
2018-03-30T12:44:50.094Z,100235.25
2018-03-30T12:47:17.656Z,100225.55
2018-03-30T12:49:45.214Z,100229.98
2018-03-30T12:52:12.666Z,100222.28
2018-03-30T12:54:40.144Z,100222.70
2018-03-30T12:57:07.955Z,100218.07
2018-03-30T12:59:35.466Z,100210.64
2018-03-30T13:02:02.957Z,100209.83
2018-03-30T13:04:30.416Z,100202.90
2018-03-30T13:06:57.932Z,100198.34
2018-03-30T13:09:25.508Z,100184.46
2018-03-30T13:11:53.066Z,100181.55
2018-03-30T13:14:20.697Z,100178.52
2018-03-30T13:16:48.321Z,100177.23
2018-03-30T13:19:15.788Z,100172.44
2018-03-30T13:21:43.310Z,100167.69
2018-03-30T13:24:10.802Z,100152.83
2018-03-30T13:26:38.296Z,100148.17
2018-03-30T13:29:05.794Z,100144.16
2018-03-30T13:31:33.319Z,100138.73
2018-03-30T13:34:00.828Z,100136.37
2018-03-30T13:36:28.374Z,100127.73
2018-03-30T13:38:55.834Z,100124.98
2018-03-30T13:41:23.313Z,100119.65
2018-03-30T13:43:50.803Z,100122.19
2018-03-30T13:46:18.307Z,100117.17
2018-03-30T13:48:45.769Z,100118.72
2018-03-30T13:51:17.969Z,100120.00
2018-03-30T13:53:51.380Z,100117.05
2018-03-30T13:56:18.913Z,100104.16
2018-03-30T13:58:50.214Z,100110.47
2018-03-30T14:01:19.586Z,100109.34
2018-03-30T14:03:49.016Z,100098.70
2018-03-30T14:06:31.015Z,100095.92
2018-03-30T14:12:13.988Z,100083.02
2018-03-30T14:14:41.598Z,100081.11
2018-03-30T14:17:15.074Z,100077.78
2018-03-30T14:19:42.659Z,100071.91
2018-03-30T14:22:14.802Z,100067.75
2018-03-30T14:27:52.085Z,100071.58
2018-03-30T14:30:24.465Z,100053.41
2018-03-30T14:32:51.958Z,100056.81
2018-03-30T14:35:24.354Z,100062.39
2018-03-30T14:37:52.442Z,100056.91
2018-03-30T14:40:34.792Z,100045.98
2018-03-30T14:43:06.165Z,100056.46
2018-03-30T14:45:35.558Z,100056.36
2018-03-30T14:48:12.053Z,100063.30
2018-03-30T14:53:42.578Z,100053.61
2018-03-30T14:56:12.903Z,100054.16
2018-03-30T14:58:47.019Z,100045.42
2018-03-30T15:01:18.168Z,100040.44
2018-03-30T15:03:56.469Z,100041.14
2018-03-30T15:06:33.935Z,100032.36
2018-03-30T15:12:21.335Z,100035.02
2018-03-30T15:14:50.406Z,100032.28
2018-03-30T15:17:28.476Z,100031.09
2018-03-30T15:19:56.709Z,100027.24
2018-03-30T15:22:28.281Z,100029.46
2018-03-30T15:24:57.466Z,100018.79
2018-03-30T15:27:37.658Z,100020.66
2018-03-30T15:30:11.033Z,100021.84
2018-03-30T15:35:42.968Z,100014.38
2018-03-30T15:38:10.465Z,100019.60
2018-03-30T15:40:37.947Z,100013.30
2018-03-30T15:43:07.931Z,100020.11
2018-03-30T15:45:37.130Z,100018.31
2018-03-30T15:48:04.970Z,100023.56
2018-03-30T15:50:32.471Z,100017.39
2018-03-30T15:52:59.942Z,100014.92
2018-03-30T15:55:27.434Z,100009.20
2018-03-30T15:57:54.897Z,100009.44
2018-03-30T16:00:22.381Z,100006.48
2018-03-30T16:02:49.877Z,100006.73
2018-03-30T16:05:17.350Z,99997.90
2018-03-30T16:07:44.818Z,99997.41
2018-03-30T16:12:50.616Z,99996.55
2018-03-30T16:15:18.086Z,100003.69
2018-03-30T16:17:45.567Z,100001.21
2018-03-30T16:20:12.514Z,100001.66
2018-03-30T16:22:39.433Z,100002.69
2018-03-30T16:25:06.374Z,100010.55
2018-03-30T16:27:33.321Z,100008.72
2018-03-30T16:30:00.254Z,100007.91
2018-03-30T16:32:27.225Z,100022.05
2018-03-30T16:34:54.159Z,100020.61
2018-03-30T16:37:21.179Z,100016.61
2018-03-30T16:39:48.124Z,100016.28
2018-03-30T16:42:15.129Z,100004.11
2018-03-30T16:44:42.078Z,100011.25
2018-03-30T16:47:08.998Z,100009.34
2018-03-30T16:49:36.003Z,100008.03
2018-03-30T16:52:02.923Z,100007.20
2018-03-30T16:54:30.171Z,100003.37
2018-03-30T16:56:57.115Z,99998.05
2018-03-30T16:59:24.026Z,99993.03
2018-03-30T17:01:50.947Z,99998.50
2018-03-30T17:04:17.926Z,99986.16
2018-03-30T17:06:44.926Z,99997.09
2018-03-30T17:09:11.889Z,99986.88
2018-03-30T17:11:38.830Z,99989.23
2018-03-30T17:14:05.764Z,99992.07
2018-03-30T17:16:32.721Z,99980.48
2018-03-30T17:18:59.668Z,99978.43
2018-03-30T17:21:26.578Z,99976.15
2018-03-30T17:23:53.515Z,99970.63
2018-03-30T17:26:20.482Z,99968.95
2018-03-30T17:28:47.389Z,99970.69
2018-03-30T17:31:14.306Z,99966.36
2018-03-30T17:33:41.251Z,99969.75
2018-03-30T17:36:08.166Z,99967.75
2018-03-30T17:38:35.091Z,99966.15
2018-03-30T17:41:02.163Z,99959.69
2018-03-30T17:43:29.091Z,99954.86
2018-03-30T17:45:56.006Z,99965.94
2018-03-30T17:48:22.997Z,99962.08
2018-03-30T17:50:49.987Z,99967.62
2018-03-30T17:53:16.910Z,99964.68
2018-03-30T17:55:43.864Z,99967.78
2018-03-30T17:58:10.786Z,99974.80
2018-03-30T18:00:37.705Z,99964.89
2018-03-30T18:03:04.677Z,99969.16
2018-03-30T18:05:31.592Z,99972.73
2018-03-30T18:07:58.522Z,99972.66
2018-03-30T18:10:25.485Z,99981.09
2018-03-30T18:12:52.410Z,99982.78
2018-03-30T18:15:19.344Z,99985.84
2018-03-30T18:17:46.295Z,99983.20
2018-03-30T18:20:13.205Z,99976.61
2018-03-30T18:22:40.147Z,99980.30
2018-03-30T18:25:07.084Z,99977.63
2018-03-30T18:27:34.003Z,99972.83
2018-03-30T18:30:00.949Z,99987.34
2018-03-30T18:32:27.898Z,99985.78
2018-03-30T18:34:54.897Z,99985.52
2018-03-30T18:37:21.844Z,99985.49
2018-03-30T18:39:48.828Z,99984.82
2018-03-30T18:42:15.756Z,99984.87
2018-03-30T18:44:42.676Z,99978.80
2018-03-30T18:47:09.664Z,99984.21
2018-03-30T18:49:36.601Z,99977.45
2018-03-30T18:52:03.520Z,99985.19
2018-03-30T18:54:30.459Z,99979.13
2018-03-30T18:56:57.400Z,99979.84
2018-03-30T18:59:24.410Z,99993.56
2018-03-30T19:01:51.363Z,99993.41
2018-03-30T19:04:18.280Z,99999.05
2018-03-30T19:06:45.474Z,100003.75
2018-03-30T19:09:12.406Z,100002.20
2018-03-30T19:11:39.340Z,99999.03
2018-03-30T19:14:06.301Z,100000.95
2018-03-30T19:16:33.229Z,99999.36
2018-03-30T19:19:00.142Z,100000.23
2018-03-30T19:21:27.124Z,99997.90
2018-03-30T19:23:54.048Z,99999.16
2018-03-30T19:26:20.975Z,99999.00
2018-03-30T19:28:47.964Z,100002.11
2018-03-30T19:31:14.882Z,100011.84
2018-03-30T19:33:41.826Z,100015.59
2018-03-30T19:36:09.126Z,100011.59
2018-03-30T19:38:36.069Z,100011.31
2018-03-30T19:41:03.097Z,100010.91
2018-03-30T19:43:30.178Z,100010.91
2018-03-30T19:45:57.102Z,100002.02
2018-03-30T19:48:24.045Z,100003.08
2018-03-30T19:50:50.989Z,100005.88
2018-03-30T19:53:17.922Z,100003.08
2018-03-30T19:55:44.874Z,100010.45
2018-03-30T19:58:11.814Z,100004.81
2018-03-30T20:00:38.739Z,100008.84
2018-03-30T20:03:05.734Z,100010.02
2018-03-30T20:05:32.698Z,100010.54
2018-03-30T20:07:59.623Z,100002.38
2018-03-30T20:10:26.637Z,99984.09
2018-03-30T20:12:53.563Z,99975.73
2018-03-30T20:15:20.478Z,99978.22
2018-03-30T20:17:47.422Z,99973.48
2018-03-30T20:20:14.352Z,99964.80
2018-03-30T20:22:41.270Z,99973.28
2018-03-30T20:25:08.216Z,99978.01
2018-03-30T20:27:35.148Z,99970.27
2018-03-30T20:30:02.103Z,99968.66
2018-03-30T20:32:29.060Z,99966.99
2018-03-30T20:34:55.974Z,99966.79
2018-03-30T20:37:22.931Z,99960.19
2018-03-30T20:39:49.858Z,99961.64
2018-03-30T20:42:16.782Z,99965.67
2018-03-30T20:44:43.714Z,99959.42
2018-03-30T20:47:10.658Z,99951.06
2018-03-30T20:49:37.592Z,99947.97
2018-03-30T20:52:04.633Z,99946.13
2018-03-30T20:54:31.604Z,99950.48
2018-03-30T20:56:58.543Z,99946.33
2018-03-30T20:59:25.560Z,99949.14
2018-03-30T21:01:52.496Z,99940.14
2018-03-30T21:04:19.410Z,99934.67
2018-03-30T21:06:46.380Z,99930.79
2018-03-30T21:09:13.368Z,99929.47
2018-03-30T21:11:40.302Z,99930.88
2018-03-30T21:14:07.283Z,99923.45
2018-03-30T21:16:34.217Z,99925.96
2018-03-30T21:19:01.151Z,99925.96
2018-03-30T21:21:28.095Z,99928.47
2018-03-30T21:23:55.021Z,99936.50
2018-03-30T21:26:21.982Z,99932.50
2018-03-30T21:28:48.919Z,99935.30
2018-03-30T21:31:15.851Z,99936.45
2018-03-30T21:33:42.797Z,99929.83
2018-03-30T21:36:09.722Z,99933.36
2018-03-30T21:38:36.641Z,99922.82
2018-03-30T21:41:03.590Z,99929.33
2018-03-30T21:43:30.513Z,99931.28
2018-03-30T21:45:57.426Z,99930.03
2018-03-30T21:48:24.365Z,99935.84
2018-03-30T21:50:51.289Z,99938.16
2018-03-30T21:53:18.231Z,99930.72
2018-03-30T21:55:45.176Z,99936.52
2018-03-30T21:58:12.180Z,99933.02
2018-03-30T22:00:39.107Z,99936.14
2018-03-30T22:03:06.029Z,99932.94
2018-03-30T22:05:33.719Z,99935.81
2018-03-30T22:08:00.641Z,99934.28
2018-03-30T22:10:27.760Z,99933.57
2018-03-30T22:12:54.679Z,99939.87
2018-03-30T22:15:21.610Z,99936.99
2018-03-30T22:17:48.587Z,99926.06
2018-03-30T22:20:15.516Z,99930.41
2018-03-30T22:22:42.498Z,99932.98
2018-03-30T22:25:09.418Z,99929.90
2018-03-30T22:27:36.347Z,99922.80
2018-03-30T22:30:03.296Z,99939.92
2018-03-30T22:32:30.239Z,99935.30
2018-03-30T22:34:57.245Z,99930.92
2018-03-30T22:37:24.254Z,99923.71
2018-03-30T22:39:51.181Z,99911.77
2018-03-30T22:42:18.092Z,99914.02
2018-03-30T22:44:45.042Z,99912.27
2018-03-30T22:47:12.054Z,99909.81
2018-03-30T22:49:39.074Z,99913.81
2018-03-30T22:52:06.017Z,99911.67
2018-03-30T22:54:32.962Z,99910.82
2018-03-30T22:57:00.058Z,99900.63
2018-03-30T22:59:27.004Z,99901.87
2018-03-30T23:01:53.929Z,99885.27
2018-03-30T23:04:20.904Z,99874.96
2018-03-30T23:06:47.916Z,99865.67
2018-03-30T23:09:14.833Z,99861.05
2018-03-30T23:11:41.783Z,99861.88
2018-03-30T23:14:08.702Z,99867.62
2018-03-30T23:16:36.039Z,99864.14
2018-03-30T23:19:03.054Z,99860.83
2018-03-30T23:21:29.970Z,99864.23
2018-03-30T23:23:56.907Z,99855.77
2018-03-30T23:26:23.854Z,99855.25
2018-03-30T23:28:50.787Z,99847.94
2018-03-30T23:31:17.994Z,99842.17
2018-03-30T23:33:45.019Z,99844.73
2018-03-30T23:36:11.983Z,99840.72
2018-03-30T23:38:38.922Z,99826.81
2018-03-30T23:41:06.008Z,99825.57
2018-03-30T23:43:33.100Z,99819.06
2018-03-30T23:46:00.101Z,99822.55
2018-03-30T23:48:27.056Z,99825.45
2018-03-30T23:50:54.051Z,99820.17
2018-03-30T23:53:21.022Z,99808.32
2018-03-30T23:55:47.974Z,99817.70
2018-03-30T23:58:14.933Z,99816.45
